Weather History for Superior, WI

Change the Weather History Date:

Sunday, November 25, 2012

  Actual Average Record
Temperature  
Mean Temperature 20 °F -  
Max Temperature 27 °F 34 °F 51 °F (1998)
Min Temperature 12 °F 19 °F -10 °F (1977)
Degree Days  
Heating Degree Days 45    
Moisture  
Dew Point 17 °F    
Average Humidity 75    
Maximum Humidity 91    
Minimum Humidity 64    
Precipitation  
Precipitation 0.05 in - - ()
Sea Level Pressure  
Sea Level Pressure 29.93 in    
Wind  
Wind Speed 8 mph (WNW)    
Max Wind Speed 20 mph    
Max Gust Speed 25 mph    
Visibility 10 miles    
Events Snow    
Averages and records for this station are not official NWS values.
T = Trace of Precipitation, MM = Missing Value Source: NWS Daily Summary

Daily Weather History Graph

Daily Weather History Graph

Search for Another Location

Airport:

Trip Planner

Search our weather history database for the weather conditions in past years. The results will help you decide how hot, cold, wet, or windy it might be!

Date:

Astronomy

Nov. 25, 2012 Rise Set
Actual Time 7:25 AM CST 4:25 PM CST
Civil Twilight 6:51 AM CST 4:59 PM CST
Nautical Twilight 6:13 AM CST 5:36 PM CST
Astronomical Twilight 5:37 AM CST 6:13 PM CST
Moon 2:48 PM CST 4:32 AM CST
Length of Visible Light 10h 07m
Length of Day
9h 00m
Waxing Gibbous, 93% of the Moon is Illuminated
Nov 25
Waxing Gibbous
Nov 28
Full
Dec 6
Last Quarter
Dec 13
New
Dec 19
First Quarter

Hourly Weather History & Observations

Time (CST) Temp. Windchill Dew Point Humidity Pressure Visibility Wind Dir Wind Speed Gust Speed Precip Events Conditions
12:15 AM 21.2 °F 14.9 °F 18.9 °F 91% 29.79 in 10.0 mi WSW 4.6 mph - N/A   Overcast
12:35 AM 21.7 °F 15.5 °F 18.9 °F 89% 29.80 in 10.0 mi West 4.6 mph - N/A   Overcast
12:55 AM 21.9 °F 14.5 °F 19.0 °F 89% 29.80 in 10.0 mi West 5.8 mph - N/A   Overcast
1:15 AM 22.1 °F 14.7 °F 19.0 °F 88% 29.80 in 10.0 mi West 5.8 mph - N/A   Overcast
1:35 AM 22.3 °F 16.1 °F 18.9 °F 87% 29.79 in 10.0 mi West 4.6 mph - N/A   Overcast
1:55 AM 22.6 °F 15.3 °F 18.9 °F 85% 29.80 in 10.0 mi WSW 5.8 mph - N/A   Overcast
2:35 AM 22.8 °F 14.5 °F 18.9 °F 85% 29.81 in 10.0 mi West 6.9 mph - N/A   Overcast
2:55 AM 23.0 °F 14.7 °F 18.7 °F 84% 29.81 in 10.0 mi West 6.9 mph - N/A   Overcast
3:15 AM 23.0 °F 14.7 °F 19.0 °F 85% 29.81 in 10.0 mi WSW 6.9 mph - N/A   Overcast
3:35 AM 23.2 °F 16.0 °F 19.0 °F 84% 29.81 in 10.0 mi SW 5.8 mph - N/A   Overcast
3:55 AM 23.4 °F 17.4 °F 19.4 °F 85% 29.82 in 10.0 mi West 4.6 mph - N/A   Overcast
4:15 AM 24.3 °F 14.6 °F 19.8 °F 83% 29.82 in 10.0 mi WNW 9.2 mph - N/A   Overcast
4:35 AM 24.6 °F 15.8 °F 20.1 °F 83% 29.83 in 10.0 mi WNW 8.1 mph - N/A   Overcast
4:55 AM 24.6 °F 15.8 °F 20.3 °F 84% 29.84 in 10.0 mi WNW 8.1 mph - N/A   Overcast
5:15 AM 24.8 °F 17.9 °F 20.3 °F 83% 29.83 in 10.0 mi WNW 5.8 mph - N/A   Overcast
5:35 AM 24.8 °F 17.9 °F 20.7 °F 84% 29.84 in 10.0 mi West 5.8 mph - N/A   Overcast
5:55 AM 24.4 °F 18.6 °F 20.3 °F 84% 29.83 in 10.0 mi West 4.6 mph - N/A   Overcast
6:15 AM 23.0 °F 17.0 °F 19.4 °F 86% 29.84 in 10.0 mi WSW 4.6 mph - N/A   Overcast
6:35 AM 24.1 °F 17.0 °F 19.9 °F 84% 29.84 in 10.0 mi West 5.8 mph - N/A   Overcast
6:55 AM 24.4 °F 17.5 °F 20.3 °F 84% 29.85 in 10.0 mi WSW 5.8 mph - N/A   Overcast
7:15 AM 24.8 °F 19.1 °F 20.5 °F 84% 29.86 in 10.0 mi West 4.6 mph - N/A   Overcast
7:35 AM 24.8 °F 20.5 °F 20.7 °F 84% 29.86 in 10.0 mi West 3.5 mph - N/A   Overcast
7:55 AM 24.8 °F 17.9 °F 20.8 °F 85% 29.86 in 10.0 mi SW 5.8 mph - N/A   Overcast
8:15 AM 25.7 °F 19.0 °F 20.5 °F 81% 29.87 in 10.0 mi West 5.8 mph - N/A   Overcast
8:35 AM 26.1 °F 16.8 °F 20.5 °F 79% 29.87 in 10.0 mi WNW 9.2 mph 16.1 mph N/A   Overcast
8:55 AM 26.1 °F 13.1 °F 20.7 °F 80% 29.88 in 10.0 mi WNW 17.3 mph 24.2 mph N/A   Overcast
9:15 AM 25.2 °F 13.3 °F 19.2 °F 78% 29.88 in 10.0 mi NW 13.8 mph 25.3 mph N/A   Overcast
9:35 AM 25.2 °F 13.3 °F 19.4 °F 79% 29.90 in 10.0 mi WNW 13.8 mph 18.4 mph N/A   Overcast
9:55 AM 24.8 °F 12.4 °F 19.0 °F 79% 29.91 in 10.0 mi WNW 15.0 mph - N/A   Overcast
10:15 AM 24.8 °F 10.7 °F 16.2 °F 70% 29.91 in 10.0 mi NW 19.6 mph 25.3 mph N/A   Overcast
10:35 AM 25.2 °F 13.9 °F 15.8 °F 68% 29.91 in 10.0 mi WNW 12.7 mph - N/A   Overcast
10:55 AM 25.5 °F 13.8 °F 16.0 °F 67% 29.91 in 10.0 mi NW 13.8 mph 19.6 mph N/A   Overcast
11:15 AM 25.7 °F 14.6 °F 16.0 °F 67% 29.92 in 10.0 mi WNW 12.7 mph 17.3 mph N/A   Overcast
11:35 AM 25.7 °F 15.7 °F 16.3 °F 68% 29.91 in 10.0 mi West 10.4 mph - N/A   Overcast
11:55 AM 25.7 °F 14.6 °F 16.5 °F 68% 29.91 in 10.0 mi WNW 12.7 mph - N/A   Overcast
12:15 PM 25.7 °F 17.1 °F 17.1 °F 70% 29.91 in 10.0 mi West 8.1 mph - N/A   Overcast
12:35 PM 25.7 °F 14.6 °F 17.2 °F 70% 29.91 in 10.0 mi WNW 12.7 mph 19.6 mph N/A   Overcast
12:55 PM 25.7 °F 15.1 °F 17.4 °F 71% 29.92 in 10.0 mi West 11.5 mph - N/A Snow Light Snow
1:15 PM 26.1 °F 16.8 °F 18.3 °F 73% 29.91 in 10.0 mi West 9.2 mph - N/A   Overcast
1:35 PM 26.4 °F 16.6 °F 18.7 °F 73% 29.92 in 10.0 mi West 10.4 mph - N/A   Overcast
1:55 PM 27.1 °F 17.5 °F 18.0 °F 68% 29.91 in 10.0 mi West 10.4 mph - N/A   Overcast
2:15 PM 27.3 °F 18.4 °F 17.4 °F 66% 29.91 in 10.0 mi West 9.2 mph 17.3 mph N/A   Overcast
2:35 PM 27.3 °F 17.7 °F 17.4 °F 66% 29.92 in 10.0 mi West 10.4 mph - N/A   Overcast
2:55 PM 27.3 °F 16.6 °F 17.6 °F 67% 29.93 in 10.0 mi WNW 12.7 mph 18.4 mph N/A   Overcast
3:15 PM 27.1 °F 16.9 °F 18.5 °F 70% 29.93 in 10.0 mi West 11.5 mph - N/A   Overcast
3:35 PM 27.0 °F 19.5 °F 18.9 °F 72% 29.94 in 10.0 mi West 6.9 mph - N/A   Overcast
3:55 PM 26.8 °F 17.1 °F 19.4 °F 74% 29.94 in 10.0 mi West 10.4 mph - N/A   Overcast
4:15 PM 26.6 °F 19.1 °F 20.1 °F 77% 29.94 in 10.0 mi West 6.9 mph - N/A   Overcast
4:35 PM 26.4 °F 19.8 °F 20.7 °F 79% 29.95 in 10.0 mi West 5.8 mph - N/A Snow Light Snow
4:55 PM 26.6 °F 19.1 °F 20.3 °F 77% 29.95 in 10.0 mi West 6.9 mph - N/A   Overcast
5:15 PM 26.6 °F 17.5 °F 21.0 °F 79% 29.96 in 10.0 mi West 9.2 mph - N/A Snow Light Snow
5:35 PM 26.4 °F 16.0 °F 20.8 °F 79% 29.97 in 7.0 mi WNW 11.5 mph - N/A Snow Light Snow
5:55 PM 25.9 °F 16.0 °F 18.1 °F 73% 29.98 in 10.0 mi NW 10.4 mph 17.3 mph N/A   Overcast
6:15 PM 25.9 °F 15.3 °F 16.3 °F 67% 29.99 in 10.0 mi NW 11.5 mph 18.4 mph N/A   Overcast
6:35 PM 25.3 °F 15.3 °F 15.1 °F 65% 29.99 in 10.0 mi NW 10.4 mph - N/A   Overcast
6:55 PM 25.2 °F 16.5 °F 14.7 °F 65% 30.00 in 10.0 mi WNW 8.1 mph - N/A   Overcast
7:15 PM 24.6 °F 17.7 °F 14.7 °F 66% 30.00 in 10.0 mi WNW 5.8 mph - N/A   Overcast
7:35 PM 23.9 °F 15.8 °F 14.5 °F 67% 30.01 in 10.0 mi West 6.9 mph - N/A   Overcast
7:55 PM 24.3 °F 14.6 °F 13.8 °F 64% 30.02 in 10.0 mi WNW 9.2 mph - N/A   Overcast
8:15 PM 23.5 °F 11.3 °F 13.3 °F 65% 30.03 in 10.0 mi NW 13.8 mph - N/A   Overcast
8:35 PM 21.9 °F 8.2 °F 12.9 °F 68% 30.04 in 10.0 mi NNW 16.1 mph 20.7 mph N/A   Overcast
8:55 PM 20.8 °F 6.4 °F 11.1 °F 66% 30.06 in 10.0 mi NNW 17.3 mph 23.0 mph N/A   Overcast
9:15 PM 19.2 °F 5.3 °F 9.7 °F 66% 30.08 in 10.0 mi NNW 15.0 mph - N/A   Mostly Cloudy
9:35 PM 18.1 °F 6.3 °F 9.0 °F 67% 30.10 in 10.0 mi NNW 10.4 mph - N/A   Scattered Clouds
9:55 PM 16.7 °F 5.3 °F 7.3 °F 67% 30.11 in 10.0 mi NNW 9.2 mph - N/A   Clear
10:15 PM 16.3 °F 5.7 °F 8.6 °F 72% 30.12 in 10.0 mi North 8.1 mph - N/A   Mostly Cloudy
10:35 PM 15.8 °F 4.2 °F 6.8 °F 68% 30.12 in 10.0 mi North 9.2 mph - N/A   Scattered Clouds
10:55 PM 14.5 °F 3.6 °F 6.1 °F 69% 30.14 in 10.0 mi NNW 8.1 mph - N/A   Clear
11:15 PM 13.8 °F -0.5 °F 5.7 °F 70% 30.15 in 10.0 mi NW 12.7 mph - N/A   Scattered Clouds
11:35 PM 13.1 °F 0.1 °F 3.9 °F 67% 30.16 in 10.0 mi NNW 10.4 mph - N/A   Clear
11:55 PM 12.9 °F -0.2 °F 3.2 °F 65% 30.16 in 10.0 mi NNW 10.4 mph 16.1 mph N/A   Clear